createdAt,value
2019-05-01T00:13:03.000Z,100677
2019-05-01T00:14:49.000Z,100676
2019-05-01T00:15:49.000Z,100670
2019-05-01T00:17:49.000Z,100665
2019-05-01T00:19:49.000Z,100658
2019-05-01T00:21:49.000Z,100663
2019-05-01T00:22:49.000Z,100663
2019-05-01T00:24:49.000Z,100664
2019-05-01T00:26:49.000Z,100660
2019-05-01T00:27:49.000Z,100660
2019-05-01T00:29:34.000Z,100655
2019-05-01T00:31:49.000Z,100646
2019-05-01T00:33:49.000Z,100639
2019-05-01T00:35:49.000Z,100638
2019-05-01T00:36:49.000Z,100639
2019-05-01T00:38:49.000Z,100645
2019-05-01T00:40:49.000Z,100631
2019-05-01T00:42:49.000Z,100632
2019-05-01T00:43:49.000Z,100628
2019-05-01T00:45:49.000Z,100629
2019-05-01T00:47:49.000Z,100627
2019-05-01T00:48:49.000Z,100627
2019-05-01T00:49:49.000Z,100632
2019-05-01T00:51:34.000Z,100631
2019-05-01T00:52:49.000Z,100629
2019-05-01T00:53:49.000Z,100626
2019-05-01T00:55:49.000Z,100623
2019-05-01T00:56:49.000Z,100621
2019-05-01T00:58:34.000Z,100619
2019-05-01T00:59:49.000Z,100620
2019-05-01T01:01:34.000Z,100620
2019-05-01T01:02:49.000Z,100624
2019-05-01T01:03:49.000Z,100619
2019-05-01T01:05:49.000Z,100621
2019-05-01T01:07:34.000Z,100616
2019-05-01T01:08:49.000Z,100613
2019-05-01T01:10:49.000Z,100607
2019-05-01T01:12:49.000Z,100605
2019-05-01T01:14:49.000Z,100604
2019-05-01T01:16:49.000Z,100603
2019-05-01T01:18:49.000Z,100604
2019-05-01T01:20:49.000Z,100601
2019-05-01T01:22:49.000Z,100597
2019-05-01T01:24:49.000Z,100602
2019-05-01T01:26:34.000Z,100599
2019-05-01T01:27:49.000Z,100595
2019-05-01T01:29:49.000Z,100591
2019-05-01T01:30:49.000Z,100594
2019-05-01T01:32:50.000Z,100586
2019-05-01T01:33:50.000Z,100592
2019-05-01T01:35:50.000Z,100590
2019-05-01T01:37:35.000Z,100591
2019-05-01T01:38:50.000Z,100586
2019-05-01T01:39:50.000Z,100583
2019-05-01T01:41:50.000Z,100579
2019-05-01T01:43:19.000Z,100582
2019-05-01T01:44:50.000Z,100586
2019-05-01T01:46:50.000Z,100587
2019-05-01T01:47:50.000Z,100587
2019-05-01T01:49:50.000Z,100583
2019-05-01T01:51:35.000Z,100583
2019-05-01T01:52:50.000Z,100581
2019-05-01T01:54:50.000Z,100583
2019-05-01T01:56:50.000Z,100585
2019-05-01T01:58:19.000Z,100583
2019-05-01T01:59:50.000Z,100579
2019-05-01T02:01:50.000Z,100578
2019-05-01T02:03:50.000Z,100580
2019-05-01T02:05:50.000Z,100585
2019-05-01T02:07:50.000Z,100584
2019-05-01T02:09:50.000Z,100585
2019-05-01T02:11:50.000Z,100591
2019-05-01T02:13:50.000Z,100589
2019-05-01T02:14:50.000Z,100580
2019-05-01T02:15:50.000Z,100583
2019-05-01T02:16:50.000Z,100580
2019-05-01T02:18:50.000Z,100581
2019-05-01T02:19:50.000Z,100569
2019-05-01T02:21:50.000Z,100569
2019-05-01T02:23:50.000Z,100569
2019-05-01T02:25:50.000Z,100567
2019-05-01T02:27:50.000Z,100567
2019-05-01T02:29:35.000Z,100573
2019-05-01T02:30:50.000Z,100570
2019-05-01T02:32:35.000Z,100567
2019-05-01T02:33:50.000Z,100568
2019-05-01T02:34:50.000Z,100563
2019-05-01T02:35:50.000Z,100561
2019-05-01T02:36:50.000Z,100569
2019-05-01T02:38:50.000Z,100569
2019-05-01T02:40:50.000Z,100566
2019-05-01T02:42:50.000Z,100566
2019-05-01T02:43:50.000Z,100572
2019-05-01T02:45:34.000Z,100566
2019-05-01T02:46:50.000Z,100568
2019-05-01T02:47:50.000Z,100567
2019-05-01T02:49:34.000Z,100567
2019-05-01T02:50:50.000Z,100563
2019-05-01T02:52:50.000Z,100568
2019-05-01T02:54:34.000Z,100560
2019-05-01T02:55:50.000Z,100560
2019-05-01T02:57:34.000Z,100560
2019-05-01T02:58:50.000Z,100556
2019-05-01T03:00:50.000Z,100554
2019-05-01T03:02:50.000Z,100561
2019-05-01T03:03:50.000Z,100557
2019-05-01T03:05:34.000Z,100559
2019-05-01T03:06:50.000Z,100560
2019-05-01T03:07:50.000Z,100557
2019-05-01T03:09:50.000Z,100555
2019-05-01T03:10:50.000Z,100553
2019-05-01T03:12:50.000Z,100557
2019-05-01T03:14:50.000Z,100556
2019-05-01T03:15:50.000Z,100557
2019-05-01T03:17:50.000Z,100555
2019-05-01T03:19:35.000Z,100546
2019-05-01T03:21:34.000Z,100549
2019-05-01T03:22:50.000Z,100556
2019-05-01T03:24:19.000Z,100551
2019-05-01T03:25:50.000Z,100552
2019-05-01T03:27:34.000Z,100553
2019-05-01T03:28:50.000Z,100547
2019-05-01T03:29:50.000Z,100549
2019-05-01T03:31:50.000Z,100544
2019-05-01T03:33:50.000Z,100551
2019-05-01T03:34:50.000Z,100553
2019-05-01T03:36:50.000Z,100552
2019-05-01T03:37:50.000Z,100554
2019-05-01T03:39:50.000Z,100546
2019-05-01T03:41:50.000Z,100549
2019-05-01T03:43:50.000Z,100553
2019-05-01T03:45:50.000Z,100551
2019-05-01T03:47:50.000Z,100549
2019-05-01T03:49:50.000Z,100549
2019-05-01T03:50:50.000Z,100550
2019-05-01T03:52:34.000Z,100551
2019-05-01T03:53:50.000Z,100552
2019-05-01T03:55:34.000Z,100545
2019-05-01T03:56:50.000Z,100550
2019-05-01T03:57:50.000Z,100542
2019-05-01T03:59:50.000Z,100548
2019-05-01T04:01:50.000Z,100554
2019-05-01T04:03:50.000Z,100552
2019-05-01T04:05:50.000Z,100549
2019-05-01T04:07:35.000Z,100547
2019-05-01T04:09:50.000Z,100550
2019-05-01T04:10:50.000Z,100553
2019-05-01T04:12:50.000Z,100552
2019-05-01T04:14:35.000Z,100550
2019-05-01T04:16:50.000Z,100552
2019-05-01T04:18:50.000Z,100549
2019-05-01T04:19:50.000Z,100553
2019-05-01T04:20:50.000Z,100551
2019-05-01T04:22:50.000Z,100554
2019-05-01T04:24:50.000Z,100552
2019-05-01T04:26:50.000Z,100549
2019-05-01T04:28:50.000Z,100552
2019-05-01T04:30:35.000Z,100546
2019-05-01T04:31:50.000Z,100551
2019-05-01T04:33:50.000Z,100548
2019-05-01T04:35:50.000Z,100547
2019-05-01T04:37:50.000Z,100549
2019-05-01T04:39:50.000Z,100554
2019-05-01T04:41:50.000Z,100561
2019-05-01T04:42:50.000Z,100555
2019-05-01T04:43:49.000Z,100558
2019-05-01T04:45:49.000Z,100556
2019-05-01T04:47:34.000Z,100556
2019-05-01T04:48:49.000Z,100560
2019-05-01T04:50:49.000Z,100558
2019-05-01T04:52:34.000Z,100551
2019-05-01T04:53:49.000Z,100553
2019-05-01T04:54:49.000Z,100554
2019-05-01T04:56:49.000Z,100557
2019-05-01T04:57:49.000Z,100557
2019-05-01T04:58:49.000Z,100561
2019-05-01T05:00:49.000Z,100564
2019-05-01T05:02:49.000Z,100564
2019-05-01T05:04:49.000Z,100563
2019-05-01T05:05:49.000Z,100558
2019-05-01T05:07:49.000Z,100565
2019-05-01T05:09:49.000Z,100567
2019-05-01T05:11:49.000Z,100576
2019-05-01T05:12:49.000Z,100571
2019-05-01T05:14:34.000Z,100566
2019-05-01T05:15:49.000Z,100564
2019-05-01T05:16:49.000Z,100566
2019-05-01T05:18:49.000Z,100576
2019-05-01T05:19:49.000Z,100571
2019-05-01T05:21:49.000Z,100570
2019-05-01T05:23:49.000Z,100569
2019-05-01T05:24:49.000Z,100567
2019-05-01T05:26:49.000Z,100570
2019-05-01T05:27:49.000Z,100572
2019-05-01T05:29:49.000Z,100573
2019-05-01T05:31:49.000Z,100572
2019-05-01T05:32:49.000Z,100568
2019-05-01T05:33:49.000Z,100575
2019-05-01T05:35:49.000Z,100573
2019-05-01T05:36:49.000Z,100575
2019-05-01T05:38:49.000Z,100573
2019-05-01T05:40:49.000Z,100576
2019-05-01T05:42:49.000Z,100574
2019-05-01T05:43:49.000Z,100576
2019-05-01T05:45:49.000Z,100579
2019-05-01T05:46:49.000Z,100580
2019-05-01T05:48:50.000Z,100578
2019-05-01T05:50:50.000Z,100578
2019-05-01T05:52:50.000Z,100581
2019-05-01T05:54:50.000Z,100573
2019-05-01T05:55:50.000Z,100571
2019-05-01T05:57:50.000Z,100569
2019-05-01T05:58:50.000Z,100567
2019-05-01T06:00:50.000Z,100567
2019-05-01T06:02:50.000Z,100565
2019-05-01T06:04:50.000Z,100563
2019-05-01T06:05:50.000Z,100564
2019-05-01T06:07:50.000Z,100564
2019-05-01T06:08:50.000Z,100563
2019-05-01T06:10:19.000Z,100573
2019-05-01T06:11:50.000Z,100564
2019-05-01T06:13:21.000Z,100561
2019-05-01T06:14:50.000Z,100565
2019-05-01T06:16:50.000Z,100566
2019-05-01T06:18:35.000Z,100567
2019-05-01T06:19:50.000Z,100571
2019-05-01T06:21:35.000Z,100566
2019-05-01T06:22:50.000Z,100566
2019-05-01T06:24:35.000Z,100562
2019-05-01T06:26:35.000Z,100574
2019-05-01T06:27:50.000Z,100577
2019-05-01T06:29:35.000Z,100571
2019-05-01T06:30:50.000Z,100576
2019-05-01T06:32:50.000Z,100572
2019-05-01T06:34:23.000Z,100579
2019-05-01T06:35:35.000Z,100578
2019-05-01T06:37:20.000Z,100587
2019-05-01T06:39:50.000Z,100576
2019-05-01T06:41:35.000Z,100584
2019-05-01T06:43:25.000Z,100577
2019-05-01T06:44:35.000Z,100582
2019-05-01T06:45:50.000Z,100586
2019-05-01T06:47:35.000Z,100581
2019-05-01T06:49:20.000Z,100579
2019-05-01T06:51:50.000Z,100587
2019-05-01T06:53:35.000Z,100582
2019-05-01T06:55:20.000Z,100578
2019-05-01T06:56:50.000Z,100579
2019-05-01T06:58:20.000Z,100584
2019-05-01T06:59:50.000Z,100586
2019-05-01T07:01:23.000Z,100589
2019-05-01T07:02:35.000Z,100589
2019-05-01T07:04:35.000Z,100597
2019-05-01T07:06:50.000Z,100595
2019-05-01T07:08:24.000Z,100594
2019-05-01T07:10:30.000Z,100590
2019-05-01T07:11:35.000Z,100591
2019-05-01T07:13:35.000Z,100596
2019-05-01T07:14:50.000Z,100593
2019-05-01T07:16:35.000Z,100595
2019-05-01T07:18:24.000Z,100591
2019-05-01T07:19:35.000Z,100582
2019-05-01T07:20:50.000Z,100583
2019-05-01T07:22:35.000Z,100581
2019-05-01T07:24:20.000Z,100584
2019-05-01T07:25:35.000Z,100587
2019-05-01T07:27:20.000Z,100583
2019-05-01T07:28:35.000Z,100580
2019-05-01T07:30:20.000Z,100582
2019-05-01T07:31:50.000Z,100585
2019-05-01T07:33:20.000Z,100581
2019-05-01T07:34:20.000Z,100581
2019-05-01T07:35:35.000Z,100585
2019-05-01T07:37:20.000Z,100579
2019-05-01T08:20:29.000Z,100587
2019-05-01T08:22:00.000Z,100583
2019-05-01T08:23:15.000Z,100589
2019-05-01T08:25:15.000Z,100585
2019-05-01T08:26:45.000Z,100595
2019-05-01T08:28:15.000Z,100587
2019-05-01T08:30:00.000Z,100588
2019-05-01T08:32:00.000Z,100587
2019-05-01T08:33:15.000Z,100586
2019-05-01T08:34:48.000Z,100584
2019-05-01T08:36:15.000Z,100580
2019-05-01T08:38:15.000Z,100585
2019-05-01T08:39:45.000Z,100584
2019-05-01T08:41:15.000Z,100585
2019-05-01T08:43:00.000Z,100587
2019-05-01T08:44:45.000Z,100588
2019-05-01T08:46:15.000Z,100586
2019-05-01T08:48:00.000Z,100582
2019-05-01T08:49:15.000Z,100581
2019-05-01T08:51:15.000Z,100580
2019-05-01T08:52:45.000Z,100583
2019-05-01T08:54:15.000Z,100581
2019-05-01T08:55:46.000Z,100576
2019-05-01T08:57:15.000Z,100573
2019-05-01T08:58:15.000Z,100571
2019-05-01T09:00:00.000Z,100570
2019-05-01T09:01:45.000Z,100571
2019-05-01T09:03:00.000Z,100565
2019-05-01T09:05:00.000Z,100575
2019-05-01T09:06:15.000Z,100576
2019-05-01T09:07:15.000Z,100576
2019-05-01T09:09:00.000Z,100580
2019-05-01T09:11:00.000Z,100577
2019-05-01T09:12:15.000Z,100570
2019-05-01T09:14:15.000Z,100576
2019-05-01T09:15:15.000Z,100578
2019-05-01T09:17:15.000Z,100570
2019-05-01T09:19:15.000Z,100570
2019-05-01T09:21:15.000Z,100575
2019-05-01T09:23:15.000Z,100578
2019-05-01T09:25:00.000Z,100572
2019-05-01T09:26:45.000Z,100571
2019-05-01T09:29:15.000Z,100570
2019-05-01T09:31:00.000Z,100567
2019-05-01T09:32:45.000Z,100560
2019-05-01T09:34:15.000Z,100568
2019-05-01T09:35:45.000Z,100569
2019-05-01T10:19:00.000Z,100540
2019-05-01T10:20:31.000Z,100545
2019-05-01T10:21:46.000Z,100539
2019-05-01T10:23:31.000Z,100537
2019-05-01T10:24:31.000Z,100534
2019-05-01T10:26:16.000Z,100534
2019-05-01T10:27:32.000Z,100529
2019-05-01T10:28:32.000Z,100528
2019-05-01T10:29:46.000Z,100529
2019-05-01T10:31:46.000Z,100528
2019-05-01T10:33:31.000Z,100526
2019-05-01T10:34:46.000Z,100528
2019-05-01T10:36:18.000Z,100521
2019-05-01T10:38:46.000Z,100523
2019-05-01T10:40:31.000Z,100522
2019-05-01T10:42:46.000Z,100518
2019-05-01T10:43:46.000Z,100514
2019-05-01T10:45:46.000Z,100510
2019-05-01T10:46:46.000Z,100516
2019-05-01T10:48:46.000Z,100518
2019-05-01T10:49:46.000Z,100517
2019-05-01T10:51:46.000Z,100505
2019-05-01T10:53:31.000Z,100507
2019-05-01T10:54:46.000Z,100511
2019-05-01T10:56:46.000Z,100507
2019-05-01T10:58:16.000Z,100507
2019-05-01T10:59:46.000Z,100508
2019-05-01T11:00:46.000Z,100503
2019-05-01T11:02:31.000Z,100503
2019-05-01T11:03:46.000Z,100504
2019-05-01T11:05:31.000Z,100502
2019-05-01T11:06:46.000Z,100501
2019-05-01T11:08:46.000Z,100498
2019-05-01T11:09:46.000Z,100502
2019-05-01T11:11:46.000Z,100499
2019-05-01T11:13:31.000Z,100499
2019-05-01T11:14:46.000Z,100491
2019-05-01T11:15:46.000Z,100489
2019-05-01T11:17:31.000Z,100485
2019-05-01T11:18:46.000Z,100494
2019-05-01T11:19:46.000Z,100490
2019-05-01T11:21:46.000Z,100490
2019-05-01T11:22:46.000Z,100487
2019-05-01T11:24:46.000Z,100486
2019-05-01T11:26:31.000Z,100483
2019-05-01T11:27:46.000Z,100486
2019-05-01T11:29:46.000Z,100484
2019-05-01T11:30:46.000Z,100482
2019-05-01T11:32:31.000Z,100479
2019-05-01T11:33:46.000Z,100479
2019-05-01T11:35:46.000Z,100474
2019-05-01T11:37:46.000Z,100474
2019-05-01T11:38:46.000Z,100465
2019-05-01T11:40:46.000Z,100469
2019-05-01T11:41:46.000Z,100468
2019-05-01T11:43:46.000Z,100468
2019-05-01T11:44:46.000Z,100469
2019-05-01T11:46:46.000Z,100462
2019-05-01T11:48:31.000Z,100454
2019-05-01T11:50:31.000Z,100457
2019-05-01T11:51:46.000Z,100455
2019-05-01T11:53:46.000Z,100454
2019-05-01T11:54:46.000Z,100455
2019-05-01T11:56:46.000Z,100452
2019-05-01T11:57:46.000Z,100455
2019-05-01T11:59:31.000Z,100451
2019-05-01T12:01:46.000Z,100450
2019-05-01T12:03:46.000Z,100449
2019-05-01T12:04:46.000Z,100449
2019-05-01T12:05:46.000Z,100452
2019-05-01T12:07:46.000Z,100446
2019-05-01T12:08:46.000Z,100445
2019-05-01T12:10:46.000Z,100444
2019-05-01T12:12:46.000Z,100446
2019-05-01T12:14:46.000Z,100444
2019-05-01T12:15:46.000Z,100443
2019-05-01T12:17:46.000Z,100437
2019-05-01T12:19:46.000Z,100431
2019-05-01T12:21:31.000Z,100436
2019-05-01T12:22:46.000Z,100439
2019-05-01T12:24:46.000Z,100433
2019-05-01T12:26:46.000Z,100431
2019-05-01T12:28:46.000Z,100430
2019-05-01T12:29:46.000Z,100427
2019-05-01T12:31:46.000Z,100428
2019-05-01T12:32:46.000Z,100421
2019-05-01T12:34:46.000Z,100424
2019-05-01T12:36:31.000Z,100418
2019-05-01T12:38:46.000Z,100419
2019-05-01T12:39:46.000Z,100419
2019-05-01T12:41:46.000Z,100417
2019-05-01T12:43:46.000Z,100416
2019-05-01T12:45:46.000Z,100410
2019-05-01T12:47:46.000Z,100409
2019-05-01T12:49:46.000Z,100406
2019-05-01T12:50:46.000Z,100406
2019-05-01T12:52:46.000Z,100409
2019-05-01T12:54:46.000Z,100398
2019-05-01T12:55:46.000Z,100397
2019-05-01T12:57:31.000Z,100397
2019-05-01T12:58:46.000Z,100394
2019-05-01T13:00:31.000Z,100395
2019-05-01T13:01:46.000Z,100384
2019-05-01T13:02:46.000Z,100379
2019-05-01T13:04:46.000Z,100376
2019-05-01T13:06:46.000Z,100379
2019-05-01T13:08:46.000Z,100383
2019-05-01T13:09:46.000Z,100384
2019-05-01T13:10:46.000Z,100379
2019-05-01T13:12:46.000Z,100376
2019-05-01T13:14:46.000Z,100373
2019-05-01T13:16:46.000Z,100376
2019-05-01T13:18:30.000Z,100371
2019-05-01T13:19:46.000Z,100371
2019-05-01T13:21:46.000Z,100368
2019-05-01T13:22:46.000Z,100374
2019-05-01T13:24:46.000Z,100369
2019-05-01T13:26:46.000Z,100363
2019-05-01T13:28:46.000Z,100361
2019-05-01T13:29:46.000Z,100359
2019-05-01T13:31:46.000Z,100360
2019-05-01T13:33:46.000Z,100355
2019-05-01T13:35:46.000Z,100354
2019-05-01T13:37:46.000Z,100350
2019-05-01T13:39:46.000Z,100352
2019-05-01T13:41:46.000Z,100347
2019-05-01T13:43:46.000Z,100340
2019-05-01T13:44:46.000Z,100342
2019-05-01T13:46:46.000Z,100336
2019-05-01T13:48:46.000Z,100326
2019-05-01T13:50:46.000Z,100333
2019-05-01T13:51:46.000Z,100332
2019-05-01T13:53:15.000Z,100330
2019-05-01T13:54:46.000Z,100324
2019-05-01T13:56:46.000Z,100320
2019-05-01T13:57:46.000Z,100321
2019-05-01T13:58:46.000Z,100321
2019-05-01T14:00:31.000Z,100324
2019-05-01T14:01:46.000Z,100324
2019-05-01T14:03:46.000Z,100323
2019-05-01T14:04:46.000Z,100320
2019-05-01T14:05:46.000Z,100317
2019-05-01T14:07:16.000Z,100309
2019-05-01T14:08:46.000Z,100314
2019-05-01T14:10:46.000Z,100313
2019-05-01T14:11:46.000Z,100307
2019-05-01T14:13:46.000Z,100305
2019-05-01T14:15:30.000Z,100304
2019-05-01T14:16:46.000Z,100305
2019-05-01T14:17:46.000Z,100305
2019-05-01T14:19:31.000Z,100298
2019-05-01T14:21:46.000Z,100290
2019-05-01T14:22:46.000Z,100290
2019-05-01T14:24:46.000Z,100285
2019-05-01T14:26:46.000Z,100288
2019-05-01T14:28:31.000Z,100289
2019-05-01T14:29:46.000Z,100287
2019-05-01T14:31:46.000Z,100283
2019-05-01T14:33:46.000Z,100283
2019-05-01T14:34:46.000Z,100282
2019-05-01T14:36:46.000Z,100277
2019-05-01T14:38:46.000Z,100282
2019-05-01T14:39:46.000Z,100279
2019-05-01T14:41:31.000Z,100280
2019-05-01T14:42:31.000Z,100278
2019-05-01T14:43:46.000Z,100276
2019-05-01T14:45:31.000Z,100279
2019-05-01T14:46:46.000Z,100273
2019-05-01T14:47:46.000Z,100275
2019-05-01T14:49:46.000Z,100274
2019-05-01T14:51:46.000Z,100270
2019-05-01T14:52:46.000Z,100267
2019-05-01T14:54:46.000Z,100266
2019-05-01T14:56:46.000Z,100271
2019-05-01T14:58:46.000Z,100265
2019-05-01T14:59:46.000Z,100259
2019-05-01T15:01:31.000Z,100259
2019-05-01T15:02:46.000Z,100259
2019-05-01T15:04:46.000Z,100256
2019-05-01T15:06:31.000Z,100257
2019-05-01T15:07:31.000Z,100255
2019-05-01T15:09:46.000Z,100249
2019-05-01T15:10:46.000Z,100250
2019-05-01T15:11:46.000Z,100256
2019-05-01T15:13:31.000Z,100253
2019-05-01T15:15:46.000Z,100252
2019-05-01T15:17:46.000Z,100247
2019-05-01T15:18:46.000Z,100252
2019-05-01T15:20:46.000Z,100248
2019-05-01T15:21:46.000Z,100250
2019-05-01T15:23:46.000Z,100246
2019-05-01T15:25:46.000Z,100247
2019-05-01T15:27:46.000Z,100249
2019-05-01T15:28:46.000Z,100247
2019-05-01T15:30:46.000Z,100249
2019-05-01T15:32:31.000Z,100241
2019-05-01T15:33:46.000Z,100240
2019-05-01T15:35:46.000Z,100236
2019-05-01T15:36:46.000Z,100233
2019-05-01T15:38:46.000Z,100235
2019-05-01T15:40:46.000Z,100231
2019-05-01T15:41:46.000Z,100231
2019-05-01T15:42:46.000Z,100231
2019-05-01T15:44:46.000Z,100228
2019-05-01T15:46:46.000Z,100234
2019-05-01T15:48:46.000Z,100226
2019-05-01T15:49:46.000Z,100227
2019-05-01T15:51:46.000Z,100228
2019-05-01T15:52:46.000Z,100224
2019-05-01T15:54:46.000Z,100220
2019-05-01T15:55:46.000Z,100221
2019-05-01T15:57:46.000Z,100214
2019-05-01T15:58:46.000Z,100217
2019-05-01T16:00:31.000Z,100214
2019-05-01T16:02:46.000Z,100220
2019-05-01T16:04:46.000Z,100216
2019-05-01T16:06:46.000Z,100220
2019-05-01T16:07:46.000Z,100213
2019-05-01T16:09:16.000Z,100212
2019-05-01T16:10:31.000Z,100213
2019-05-01T16:11:46.000Z,100215
2019-05-01T16:12:46.000Z,100210
2019-05-01T16:14:46.000Z,100210
2019-05-01T16:15:46.000Z,100212
2019-05-01T16:17:46.000Z,100206
2019-05-01T16:19:31.000Z,100206
2019-05-01T16:20:32.000Z,100208
2019-05-01T16:21:46.000Z,100207
2019-05-01T16:22:46.000Z,100207
2019-05-01T16:24:31.000Z,100202
2019-05-01T16:25:46.000Z,100200
2019-05-01T16:27:16.000Z,100198
2019-05-01T16:28:46.000Z,100199
2019-05-01T16:30:31.000Z,100194
2019-05-01T16:31:46.000Z,100195
2019-05-01T16:33:46.000Z,100198
2019-05-01T16:35:46.000Z,100197
2019-05-01T16:37:46.000Z,100191
2019-05-01T16:39:46.000Z,100185
2019-05-01T16:40:46.000Z,100189
2019-05-01T16:42:46.000Z,100186
2019-05-01T16:44:46.000Z,100189
2019-05-01T16:46:46.000Z,100182
2019-05-01T16:47:46.000Z,100183
2019-05-01T16:49:46.000Z,100186
2019-05-01T16:51:46.000Z,100181
2019-05-01T16:53:46.000Z,100175
2019-05-01T16:55:46.000Z,100180
2019-05-01T16:57:46.000Z,100172
2019-05-01T16:59:46.000Z,100171
2019-05-01T17:01:46.000Z,100173
2019-05-01T17:02:46.000Z,100168
2019-05-01T17:03:46.000Z,100171
2019-05-01T17:05:46.000Z,100168
2019-05-01T17:07:46.000Z,100159
2019-05-01T17:09:46.000Z,100160
2019-05-01T17:11:16.000Z,100156
2019-05-01T17:12:46.000Z,100156
2019-05-01T17:14:46.000Z,100156
2019-05-01T17:16:46.000Z,100156
2019-05-01T17:18:46.000Z,100155
2019-05-01T17:19:46.000Z,100153
2019-05-01T17:21:46.000Z,100158
2019-05-01T17:23:46.000Z,100153
2019-05-01T17:25:46.000Z,100159
2019-05-01T17:26:46.000Z,100159
2019-05-01T17:27:46.000Z,100156
2019-05-01T17:29:46.000Z,100152
2019-05-01T17:31:46.000Z,100158
2019-05-01T17:32:46.000Z,100151
2019-05-01T17:34:31.000Z,100155
2019-05-01T17:36:46.000Z,100154
2019-05-01T17:38:46.000Z,100152
2019-05-01T17:40:31.000Z,100145
2019-05-01T17:41:46.000Z,100150
2019-05-01T17:43:46.000Z,100152
2019-05-01T17:45:31.000Z,100151
2019-05-01T17:47:17.000Z,100154
2019-05-01T17:48:31.000Z,100151
2019-05-01T17:49:46.000Z,100158
2019-05-01T17:51:19.000Z,100140
2019-05-01T17:52:46.000Z,100154
2019-05-01T17:54:46.000Z,100158
2019-05-01T17:56:16.000Z,100155
2019-05-01T17:57:31.000Z,100152
2019-05-01T17:58:46.000Z,100154
2019-05-01T18:00:46.000Z,100156
2019-05-01T18:02:31.000Z,100157
2019-05-01T18:03:46.000Z,100159
2019-05-01T18:04:46.000Z,100154
2019-05-01T18:06:46.000Z,100158
2019-05-01T18:08:46.000Z,100151
2019-05-01T18:10:31.000Z,100152
2019-05-01T18:12:46.000Z,100148
2019-05-01T18:14:46.000Z,100153
2019-05-01T18:16:31.000Z,100154
2019-05-01T18:17:46.000Z,100149
2019-05-01T18:19:46.000Z,100153
2019-05-01T18:21:46.000Z,100152
2019-05-01T18:23:46.000Z,100152
2019-05-01T18:25:31.000Z,100158
2019-05-01T18:26:46.000Z,100154
2019-05-01T18:28:46.000Z,100152
2019-05-01T18:30:16.000Z,100151
2019-05-01T18:31:31.000Z,100153
2019-05-01T18:32:46.000Z,100151
2019-05-01T18:33:46.000Z,100152
2019-05-01T18:35:31.000Z,100147
2019-05-01T18:37:31.000Z,100146
2019-05-01T18:39:16.000Z,100148
2019-05-01T18:40:31.000Z,100140
2019-05-01T18:42:46.000Z,100144
2019-05-01T18:44:31.000Z,100139
2019-05-01T18:46:46.000Z,100143
2019-05-01T18:47:46.000Z,100144
2019-05-01T18:49:46.000Z,100142
2019-05-01T18:50:46.000Z,100143
2019-05-01T18:52:46.000Z,100145
2019-05-01T18:54:31.000Z,100138
2019-05-01T18:56:46.000Z,100143
2019-05-01T18:57:46.000Z,100146
2019-05-01T18:58:46.000Z,100149
2019-05-01T19:00:46.000Z,100145
2019-05-01T19:02:16.000Z,100151
2019-05-01T19:03:46.000Z,100144
2019-05-01T19:05:46.000Z,100146
2019-05-01T19:07:46.000Z,100145
2019-05-01T19:08:46.000Z,100150
2019-05-01T19:10:46.000Z,100144
2019-05-01T19:12:46.000Z,100145
2019-05-01T19:14:46.000Z,100144
2019-05-01T19:16:46.000Z,100143
2019-05-01T19:18:46.000Z,100145
2019-05-01T19:20:46.000Z,100142
2019-05-01T19:22:46.000Z,100147
2019-05-01T19:24:31.000Z,100144
2019-05-01T19:25:33.000Z,100144
2019-05-01T19:26:46.000Z,100147
2019-05-01T19:28:46.000Z,100143
2019-05-01T19:30:16.000Z,100142
2019-05-01T19:31:46.000Z,100145
2019-05-01T19:33:46.000Z,100139
2019-05-01T19:35:31.000Z,100137
2019-05-01T19:37:16.000Z,100134
2019-05-01T19:38:31.000Z,100139
2019-05-01T19:40:31.000Z,100130
2019-05-01T19:42:16.000Z,100130
2019-05-01T19:43:31.000Z,100134
2019-05-01T19:45:16.000Z,100133
2019-05-01T19:46:31.000Z,100140
2019-05-01T19:47:46.000Z,100136
2019-05-01T19:49:46.000Z,100138
2019-05-01T19:50:46.000Z,100137
2019-05-01T19:52:31.000Z,100129
2019-05-01T19:54:31.000Z,100129
2019-05-01T19:56:16.000Z,100134
2019-05-01T19:58:31.000Z,100126
2019-05-01T19:59:46.000Z,100136
2019-05-01T20:01:31.000Z,100136
2019-05-01T20:03:31.000Z,100133
2019-05-01T20:04:46.000Z,100130
2019-05-01T20:06:31.000Z,100124
2019-05-01T20:08:16.000Z,100124
2019-05-01T20:09:46.000Z,100125
2019-05-01T20:11:31.000Z,100122
2019-05-01T20:12:46.000Z,100121
2019-05-01T20:13:46.000Z,100118
2019-05-01T20:14:46.000Z,100123
2019-05-01T20:16:46.000Z,100123
2019-05-01T20:17:46.000Z,100122
2019-05-01T20:19:46.000Z,100124
2019-05-01T20:20:46.000Z,100124
2019-05-01T20:22:46.000Z,100126
2019-05-01T20:24:16.000Z,100116
2019-05-01T20:25:19.000Z,100125
2019-05-01T20:27:46.000Z,100119
2019-05-01T20:29:16.000Z,100118
2019-05-01T20:31:18.000Z,100118
2019-05-01T20:33:31.000Z,100116
2019-05-01T20:35:31.000Z,100113
2019-05-01T20:36:46.000Z,100114
2019-05-01T20:37:46.000Z,100118
2019-05-01T20:39:46.000Z,100109
2019-05-01T20:40:46.000Z,100105
2019-05-01T20:42:31.000Z,100106
2019-05-01T20:43:32.000Z,100106
2019-05-01T20:45:17.000Z,100106
2019-05-01T20:46:17.000Z,100104
2019-05-01T20:48:23.000Z,100104
2019-05-01T20:49:46.000Z,100110
2019-05-01T20:50:46.000Z,100103
2019-05-01T20:52:46.000Z,100108
2019-05-01T20:54:46.000Z,100097
2019-05-01T20:56:46.000Z,100103
2019-05-01T20:58:46.000Z,100102
2019-05-01T21:00:18.000Z,100101
2019-05-01T21:01:46.000Z,100101
2019-05-01T21:03:16.000Z,100102
2019-05-01T21:04:46.000Z,100107
2019-05-01T21:05:47.000Z,100113
2019-05-01T21:07:17.000Z,100109
2019-05-01T21:08:31.000Z,100108
2019-05-01T21:10:17.000Z,100106
2019-05-01T21:11:46.000Z,100108
2019-05-01T21:13:18.000Z,100100
2019-05-01T21:14:22.000Z,100113
2019-05-01T21:16:31.000Z,100105
2019-05-01T21:17:46.000Z,100107
2019-05-01T21:19:31.000Z,100104
2019-05-01T21:21:46.000Z,100107
2019-05-01T21:23:31.000Z,100106
2019-05-01T21:24:31.000Z,100102
2019-05-01T21:25:46.000Z,100102
2019-05-01T21:27:31.000Z,100104
2019-05-01T21:28:31.000Z,100105
2019-05-01T21:30:32.000Z,100098
2019-05-01T21:32:17.000Z,100101
2019-05-01T21:33:32.000Z,100102
2019-05-01T21:35:31.000Z,100102
2019-05-01T21:36:46.000Z,100105
2019-05-01T21:38:46.000Z,100102
2019-05-01T21:40:31.000Z,100097
2019-05-01T21:42:31.000Z,100096
2019-05-01T21:44:31.000Z,100105
2019-05-01T21:45:31.000Z,100095
2019-05-01T21:46:31.000Z,100097
2019-05-01T21:48:32.000Z,100096
2019-05-01T21:50:16.000Z,100099